createdAt,value
2019-02-11T00:00:02.485Z,99502.41
2019-02-11T00:02:31.167Z,99497.22
2019-02-11T00:04:59.662Z,99491.13
2019-02-11T00:07:28.202Z,99495.19
2019-02-11T00:09:56.755Z,99506.39
2019-02-11T00:12:25.326Z,99494.72
2019-02-11T00:15:00.028Z,99490.30
2019-02-11T00:17:28.506Z,99497.41
2019-02-11T00:19:57.039Z,99496.92
2019-02-11T00:22:25.596Z,99496.89
2019-02-11T00:24:54.131Z,99504.44
2019-02-11T00:27:22.700Z,99500.36
2019-02-11T00:29:51.299Z,99500.36
2019-02-11T00:32:19.800Z,99504.50
2019-02-11T00:34:48.416Z,99497.67
2019-02-11T00:37:16.957Z,99494.27
2019-02-11T00:39:45.459Z,99496.86
2019-02-11T00:42:13.984Z,99495.55
2019-02-11T00:44:42.553Z,99488.14
2019-02-11T00:47:17.134Z,99494.23
2019-02-11T00:49:45.670Z,99487.77
2019-02-11T00:52:14.251Z,99482.58
2019-02-11T00:54:42.920Z,99477.89
2019-02-11T00:57:11.436Z,99477.44
2019-02-11T00:59:39.999Z,99474.61
2019-02-11T01:02:08.668Z,99482.02
2019-02-11T01:04:37.229Z,99486.12
2019-02-11T01:07:12.595Z,99486.66
2019-02-11T01:09:41.267Z,99475.09
2019-02-11T01:12:09.859Z,99468.27
2019-02-11T01:14:38.409Z,99455.83
2019-02-11T01:17:07.061Z,99453.68
2019-02-11T01:19:35.752Z,99450.67
2019-02-11T01:22:04.394Z,99459.66
2019-02-11T01:24:33.007Z,99467.78
2019-02-11T01:27:01.606Z,99471.62
2019-02-11T01:29:30.223Z,99472.45
2019-02-11T01:31:58.829Z,99481.43
2019-02-11T01:34:27.394Z,99483.83
2019-02-11T01:36:55.947Z,99481.59
2019-02-11T01:39:24.497Z,99485.75
2019-02-11T01:41:53.083Z,99484.30
2019-02-11T01:44:21.697Z,99475.95
2019-02-11T01:46:50.276Z,99475.30
2019-02-11T01:49:18.929Z,99475.44
2019-02-11T01:51:47.463Z,99475.80
2019-02-11T01:54:16.146Z,99466.91
2019-02-11T01:56:44.841Z,99468.55
2019-02-11T01:59:13.420Z,99466.80
2019-02-11T02:01:42.115Z,99451.51
2019-02-11T02:04:10.756Z,99443.85
2019-02-11T02:06:39.374Z,99441.74
2019-02-11T02:09:08.350Z,99440.45
2019-02-11T02:11:36.846Z,99437.86
2019-02-11T02:14:05.427Z,99432.34
2019-02-11T02:16:33.996Z,99430.66
2019-02-11T02:19:02.525Z,99414.85
2019-02-11T02:21:31.100Z,99414.42
2019-02-11T02:23:59.713Z,99416.88
2019-02-11T02:26:28.281Z,99416.83
2019-02-11T02:28:56.771Z,99405.58
2019-02-11T02:31:25.296Z,99400.06
2019-02-11T02:33:53.810Z,99403.37
2019-02-11T02:36:27.998Z,99402.57
2019-02-11T02:38:56.567Z,99404.38
2019-02-11T02:41:25.187Z,99404.80
2019-02-11T02:43:55.843Z,99401.29
2019-02-11T02:46:24.071Z,99408.69
2019-02-11T02:48:52.645Z,99397.77
2019-02-11T02:51:21.322Z,99395.14
2019-02-11T02:53:49.871Z,99395.27
2019-02-11T02:56:18.438Z,99378.29
2019-02-11T02:58:47.139Z,99385.66
2019-02-11T03:01:15.780Z,99388.24
2019-02-11T03:03:44.397Z,99389.13
2019-02-11T03:06:12.971Z,99385.14
2019-02-11T03:08:44.700Z,99383.27
2019-02-11T03:11:16.179Z,99382.01
2019-02-11T03:13:44.859Z,99385.41
2019-02-11T03:16:16.707Z,99381.52
2019-02-11T03:18:45.370Z,99375.55
2019-02-11T03:21:14.027Z,99376.90
2019-02-11T03:23:47.299Z,99382.41
2019-02-11T03:26:15.877Z,99381.19
2019-02-11T03:28:44.493Z,99386.83
2019-02-11T03:31:13.027Z,99384.23
2019-02-11T03:33:41.604Z,99386.78
2019-02-11T03:36:10.262Z,99388.03
2019-02-11T03:38:38.888Z,99388.86
2019-02-11T03:41:07.576Z,99382.30
2019-02-11T03:43:36.164Z,99384.92
2019-02-11T03:46:04.852Z,99385.78
2019-02-11T03:48:33.456Z,99391.25
2019-02-11T03:51:02.087Z,99406.31
2019-02-11T03:53:30.820Z,99412.24
2019-02-11T03:55:59.512Z,99388.59
2019-02-11T03:58:28.075Z,99388.12
2019-02-11T04:00:56.671Z,99384.34
2019-02-11T04:03:25.374Z,99379.10
2019-02-11T04:05:54.020Z,99371.40
2019-02-11T04:08:22.568Z,99372.88
2019-02-11T04:10:51.132Z,99376.96
2019-02-11T04:13:19.826Z,99363.20
2019-02-11T04:15:48.447Z,99353.44
2019-02-11T04:18:19.773Z,99343.63
2019-02-11T04:20:49.114Z,99327.44
2019-02-11T04:23:17.981Z,99334.35
2019-02-11T04:25:46.550Z,99321.97
2019-02-11T04:28:15.058Z,99312.65
2019-02-11T04:30:43.628Z,99315.22
2019-02-11T04:33:12.371Z,99297.66
2019-02-11T04:35:44.781Z,99297.58
2019-02-11T04:38:13.476Z,99288.64
2019-02-11T04:40:42.119Z,99282.37
2019-02-11T04:43:10.713Z,99282.07
2019-02-11T04:45:39.280Z,99286.83
2019-02-11T04:48:07.925Z,99273.34
2019-02-11T04:50:36.579Z,99273.66
2019-02-11T04:53:05.241Z,99263.55
2019-02-11T04:55:33.889Z,99258.36
2019-02-11T04:58:05.628Z,99253.20
2019-02-11T05:00:34.282Z,99251.41
2019-02-11T05:03:02.893Z,99257.85
2019-02-11T05:05:31.481Z,99270.75
2019-02-11T05:08:00.147Z,99280.42
2019-02-11T05:10:28.719Z,99287.94
2019-02-11T05:12:57.417Z,99290.86
2019-02-11T05:15:26.030Z,99298.53
2019-02-11T05:17:54.570Z,99312.18
2019-02-11T05:20:23.219Z,99318.67
2019-02-11T05:22:51.786Z,99323.09
2019-02-11T05:25:20.420Z,99321.30
2019-02-11T05:27:49.124Z,99314.89
2019-02-11T05:30:17.797Z,99315.28
2019-02-11T05:32:46.452Z,99309.79
2019-02-11T05:35:15.152Z,99293.56
2019-02-11T05:37:44.265Z,99297.70
2019-02-11T05:40:19.026Z,99298.17
2019-02-11T05:42:47.805Z,99295.60
2019-02-11T05:45:16.420Z,99297.78
2019-02-11T05:47:44.925Z,99310.68
2019-02-11T05:50:13.741Z,99315.45
2019-02-11T05:52:42.397Z,99314.28
2019-02-11T05:55:11.040Z,99317.78
2019-02-11T05:57:39.946Z,99318.17
2019-02-11T06:00:12.215Z,99302.70
2019-02-11T06:02:41.034Z,99300.55
2019-02-11T06:05:11.577Z,99297.41
2019-02-11T06:07:40.580Z,99308.06
2019-02-11T06:10:11.383Z,99306.94
2019-02-11T06:12:42.999Z,99315.08
2019-02-11T06:15:11.902Z,99309.85
2019-02-11T06:17:40.858Z,99302.05
2019-02-11T06:20:10.511Z,99302.48
2019-02-11T06:22:42.208Z,99297.48
2019-02-11T06:25:10.996Z,99305.81
2019-02-11T06:27:41.312Z,99313.27
2019-02-11T06:30:12.593Z,99319.28
2019-02-11T06:32:41.595Z,99322.31
2019-02-11T06:35:11.844Z,99337.75
2019-02-11T06:37:43.591Z,99360.56
2019-02-11T06:40:15.015Z,99369.53
2019-02-11T06:42:43.595Z,99370.98
2019-02-11T06:45:13.367Z,99376.98
2019-02-11T06:47:42.506Z,99374.44
2019-02-11T06:50:15.594Z,99364.23
2019-02-11T06:52:44.323Z,99351.36
2019-02-11T06:55:13.203Z,99346.52
2019-02-11T06:57:41.886Z,99333.05
2019-02-11T07:00:17.197Z,99340.86
2019-02-11T07:02:45.927Z,99348.69
2019-02-11T07:05:14.724Z,99342.38
2019-02-11T07:07:46.612Z,99332.98
2019-02-11T07:10:15.521Z,99335.16
2019-02-11T07:12:44.345Z,99331.35
2019-02-11T07:15:21.729Z,99335.09
2019-02-11T07:17:44.898Z,99335.28
2019-02-11T07:20:15.106Z,99337.57
2019-02-11T07:22:46.953Z,99336.66
2019-02-11T07:25:16.686Z,99338.09
2019-02-11T07:27:47.096Z,99340.23
2019-02-11T07:30:22.791Z,99332.00
2019-02-11T07:32:54.818Z,99326.48
2019-02-11T07:35:30.138Z,99315.96
2019-02-11T07:37:59.137Z,99314.79
2019-02-11T07:40:28.963Z,99318.17
2019-02-11T07:43:05.079Z,99325.72
2019-02-11T07:45:36.853Z,99327.80
2019-02-11T07:48:05.862Z,99321.08
2019-02-11T07:50:37.708Z,99315.40
2019-02-11T07:53:14.108Z,99318.14
2019-02-11T07:55:44.728Z,99317.98
2019-02-11T07:58:16.587Z,99315.18
2019-02-11T08:00:46.963Z,99315.50
2019-02-11T08:03:15.673Z,99302.52
2019-02-11T08:05:44.380Z,99291.91
2019-02-11T08:08:12.941Z,99282.80
2019-02-11T08:10:41.594Z,99267.41
2019-02-11T08:13:10.190Z,99256.26
2019-02-11T08:15:38.901Z,99262.73
2019-02-11T08:18:10.507Z,99256.27
2019-02-11T08:20:39.355Z,99246.77
2019-02-11T08:23:12.954Z,99247.03
2019-02-11T08:25:38.495Z,99242.96
2019-02-11T08:28:19.649Z,99256.53
2019-02-11T08:30:49.894Z,99247.16
2019-02-11T08:33:19.204Z,99248.77
2019-02-11T08:35:48.146Z,99238.61
2019-02-11T08:38:19.960Z,99225.09
2019-02-11T08:40:55.754Z,99213.17
2019-02-11T08:43:24.754Z,99203.25
2019-02-11T08:45:53.706Z,99225.00
2019-02-11T08:48:22.439Z,99237.08
2019-02-11T08:50:56.597Z,99229.50
2019-02-11T08:53:25.752Z,99218.20
2019-02-11T08:55:54.495Z,99205.27
2019-02-11T08:58:26.111Z,99192.73
2019-02-11T09:00:54.766Z,99190.66
2019-02-11T09:03:23.874Z,99185.42
2019-02-11T09:05:52.691Z,99177.51
2019-02-11T09:08:21.468Z,99181.63
2019-02-11T09:10:50.398Z,99190.12
2019-02-11T09:13:19.213Z,99181.14
2019-02-11T09:15:55.267Z,99177.15
2019-02-11T09:18:22.742Z,99159.73
2019-02-11T09:20:52.871Z,99157.38
2019-02-11T09:23:24.694Z,99159.52
2019-02-11T09:25:55.851Z,99157.33
2019-02-11T09:28:24.959Z,99153.00
2019-02-11T09:30:53.981Z,99155.31
2019-02-11T09:33:23.090Z,99150.03
2019-02-11T09:35:54.899Z,99136.52
2019-02-11T09:38:24.012Z,99125.33
2019-02-11T09:40:58.668Z,99119.61
2019-02-11T09:43:27.617Z,99103.30
2019-02-11T09:46:03.912Z,99100.15
2019-02-11T09:48:32.523Z,99098.50
2019-02-11T09:51:02.204Z,99085.91
2019-02-11T09:53:31.322Z,99073.73
2019-02-11T09:56:04.246Z,99076.72
2019-02-11T09:58:32.972Z,99074.84
2019-02-11T10:01:01.645Z,99061.80
2019-02-11T10:03:30.181Z,99059.88
2019-02-11T10:05:58.872Z,99051.56
2019-02-11T10:08:27.410Z,99054.39
2019-02-11T10:10:55.975Z,99058.01
2019-02-11T10:13:24.639Z,99053.36
2019-02-11T10:15:53.346Z,99042.91
2019-02-11T10:18:22.039Z,99032.79
2019-02-11T10:20:50.617Z,99030.05
2019-02-11T10:23:19.223Z,99022.55
2019-02-11T10:25:47.829Z,99000.97
2019-02-11T10:28:16.474Z,99007.02
2019-02-11T10:30:45.089Z,99009.28
2019-02-11T10:33:15.431Z,99007.39
2019-02-11T10:35:44.449Z,99003.44
2019-02-11T10:38:15.155Z,99001.19
2019-02-11T10:40:46.745Z,99001.12
2019-02-11T10:43:15.169Z,98997.87
2019-02-11T10:45:44.087Z,98990.05
2019-02-11T10:48:17.782Z,98973.20
2019-02-11T10:50:47.190Z,98973.20
2019-02-11T10:53:26.271Z,98972.23
2019-02-11T10:55:56.199Z,98962.56
2019-02-11T10:58:25.224Z,98969.92
2019-02-11T11:00:54.175Z,98967.73
2019-02-11T11:03:23.043Z,98965.63
2019-02-11T11:05:52.078Z,98959.28
2019-02-11T11:08:21.049Z,98944.55
2019-02-11T11:10:51.250Z,98928.38
2019-02-11T11:13:24.402Z,98912.80
2019-02-11T11:15:53.384Z,98924.44
2019-02-11T11:18:24.957Z,98922.08
2019-02-11T11:20:55.623Z,98925.33
2019-02-11T11:23:27.018Z,98919.41
2019-02-11T11:25:56.595Z,98920.69
2019-02-11T11:28:25.420Z,98902.69
2019-02-11T11:30:55.741Z,98895.64
2019-02-11T11:33:26.233Z,98887.02
2019-02-11T11:35:55.151Z,98875.66
2019-02-11T11:38:28.308Z,98878.05
2019-02-11T11:41:01.860Z,98865.70
2019-02-11T11:43:30.880Z,98853.73
2019-02-11T11:46:03.328Z,98856.19
2019-02-11T11:48:34.237Z,98860.34
2019-02-11T11:51:07.895Z,98861.27
2019-02-11T11:53:38.642Z,98842.52
2019-02-11T11:56:09.858Z,98829.61
2019-02-11T11:58:38.454Z,98834.05
2019-02-11T12:01:07.281Z,98830.10
2019-02-11T12:03:41.475Z,98822.91
2019-02-11T12:06:17.811Z,98821.70
2019-02-11T12:08:47.067Z,98823.01
2019-02-11T12:11:18.951Z,98821.29
2019-02-11T12:13:47.655Z,98820.37
2019-02-11T12:16:27.854Z,98818.14
2019-02-11T12:19:08.155Z,98797.94
2019-02-11T12:21:42.513Z,98796.78
2019-02-11T12:24:13.110Z,98805.11
2019-02-11T12:26:42.864Z,98807.64
2019-02-11T12:29:12.345Z,98796.67
2019-02-11T12:31:41.676Z,98793.88
2019-02-11T12:34:10.798Z,98797.54
2019-02-11T12:36:41.838Z,98787.77
2019-02-11T12:39:10.625Z,98773.43
2019-02-11T12:41:40.062Z,98775.16
2019-02-11T12:44:10.700Z,98770.45
2019-02-11T12:46:47.211Z,98767.97
2019-02-11T12:49:24.502Z,98768.78
2019-02-11T12:51:55.297Z,98785.83
2019-02-11T12:54:32.540Z,98787.73
2019-02-11T12:57:05.570Z,98787.73
2019-02-11T12:59:35.028Z,98784.27
2019-02-11T13:02:03.716Z,98791.39
2019-02-11T13:04:32.440Z,98785.23
2019-02-11T13:07:01.066Z,98787.09
2019-02-11T13:09:29.710Z,98791.89
2019-02-11T13:11:58.251Z,98791.44
2019-02-11T13:14:29.765Z,98799.31
2019-02-11T13:17:14.254Z,98796.34
2019-02-11T13:19:32.185Z,98795.09
2019-02-11T13:22:01.555Z,98804.67
2019-02-11T13:24:32.526Z,98808.62
2019-02-11T13:27:02.057Z,98807.41
2019-02-11T13:29:32.332Z,98799.48
2019-02-11T13:32:05.067Z,98784.72
2019-02-11T13:34:34.325Z,98793.14
2019-02-11T13:37:08.094Z,98797.80
2019-02-11T13:39:38.368Z,98799.81
2019-02-11T13:42:07.374Z,98798.89
2019-02-11T13:44:41.722Z,98796.43
2019-02-11T13:47:15.543Z,98804.67
2019-02-11T13:49:46.542Z,98807.52
2019-02-11T13:52:14.981Z,98813.97
2019-02-11T13:54:46.650Z,98813.27
2019-02-11T13:57:15.631Z,98798.47
2019-02-11T13:59:44.574Z,98795.86
2019-02-11T14:02:13.471Z,98785.65
2019-02-11T14:04:42.277Z,98785.67
2019-02-11T14:07:11.113Z,98782.67
2019-02-11T14:09:39.737Z,98780.77
2019-02-11T14:12:11.038Z,98785.23
2019-02-11T14:14:39.760Z,98787.61
2019-02-11T14:17:08.419Z,98779.67
2019-02-11T14:19:37.061Z,98778.28
2019-02-11T14:22:05.762Z,98769.61
2019-02-11T14:24:34.372Z,98772.11
2019-02-11T14:27:05.783Z,98764.22
2019-02-11T14:29:34.286Z,98772.75
2019-02-11T14:32:02.898Z,98763.04
2019-02-11T14:34:31.544Z,98764.55
2019-02-11T14:37:00.194Z,98758.94
2019-02-11T14:39:28.827Z,98758.39
2019-02-11T14:42:02.986Z,98754.02
2019-02-11T14:44:31.673Z,98746.84
2019-02-11T14:47:00.228Z,98748.59
2019-02-11T14:49:28.797Z,98739.38
2019-02-11T14:51:57.404Z,98735.66
2019-02-11T14:54:25.961Z,98735.33
2019-02-11T14:56:57.452Z,98734.53
2019-02-11T14:59:25.933Z,98730.91
2019-02-11T15:01:54.477Z,98740.90
2019-02-11T15:04:28.540Z,98748.36
2019-02-11T15:06:57.049Z,98756.18
2019-02-11T15:09:25.784Z,98750.66
2019-02-11T15:11:54.398Z,98756.19
2019-02-11T15:14:23.011Z,98744.70
2019-02-11T15:16:51.617Z,98738.09
2019-02-11T15:19:20.189Z,98727.68
2019-02-11T15:21:48.842Z,98714.81
2019-02-11T15:24:17.332Z,98719.66
2019-02-11T15:26:48.565Z,98714.73
2019-02-11T15:29:17.120Z,98721.66
2019-02-11T15:31:45.801Z,98726.27
2019-02-11T15:34:16.843Z,98727.34
2019-02-11T15:36:45.342Z,98724.34
2019-02-11T15:39:13.945Z,98723.16
2019-02-11T15:41:42.605Z,98715.75
2019-02-11T15:44:11.157Z,98709.71
2019-02-11T15:46:42.850Z,98697.46
2019-02-11T15:49:11.452Z,98684.16
2019-02-11T15:51:40.006Z,98681.92
2019-02-11T15:54:11.386Z,98686.98
2019-02-11T15:56:42.784Z,98700.70
2019-02-11T15:59:11.411Z,98694.94
2019-02-11T16:01:40.016Z,98686.11
2019-02-11T16:04:14.195Z,98676.80
2019-02-11T16:06:42.800Z,98668.21
2019-02-11T16:09:11.443Z,98664.16
2019-02-11T16:11:40.007Z,98652.77
2019-02-11T16:14:08.772Z,98665.47
2019-02-11T16:16:37.322Z,98653.92
2019-02-11T16:19:05.904Z,98660.63
2019-02-11T16:21:34.594Z,98669.61
2019-02-11T16:24:08.543Z,98674.37
2019-02-11T16:26:37.065Z,98674.30
2019-02-11T16:29:05.713Z,98675.92
2019-02-11T16:31:39.531Z,98684.94
2019-02-11T16:34:08.032Z,98679.97
2019-02-11T16:36:36.689Z,98670.70
2019-02-11T16:39:06.065Z,98679.69
2019-02-11T16:41:34.745Z,98672.45
2019-02-11T16:44:03.371Z,98678.96
2019-02-11T16:46:34.987Z,98672.41
2019-02-11T16:49:03.558Z,98679.83
2019-02-11T16:51:32.166Z,98691.85
2019-02-11T16:54:06.664Z,98693.36
2019-02-11T16:56:35.337Z,98687.27
2019-02-11T16:59:03.898Z,98691.23
2019-02-11T17:01:32.492Z,98675.55
2019-02-11T17:04:00.993Z,98666.78
2019-02-11T17:06:29.538Z,98654.95
2019-02-11T17:08:58.104Z,98663.19
2019-02-11T17:11:26.745Z,98668.23
2019-02-11T17:13:55.365Z,98662.09
2019-02-11T17:16:25.112Z,98660.73
2019-02-11T17:18:53.880Z,98662.73
2019-02-11T17:21:22.436Z,98668.95
2019-02-11T17:23:51.051Z,98658.59
2019-02-11T17:26:19.610Z,98658.95
2019-02-11T17:28:48.170Z,98666.87
2019-02-11T17:31:17.062Z,98660.39
2019-02-11T17:33:48.777Z,98664.78
2019-02-11T17:36:17.471Z,98659.62
2019-02-11T17:38:46.122Z,98657.63
2019-02-11T17:41:14.801Z,98640.19
2019-02-11T17:43:43.349Z,98648.14
2019-02-11T17:46:12.119Z,98639.23
2019-02-11T17:48:40.684Z,98628.72
2019-02-11T17:51:09.427Z,98629.83
2019-02-11T17:53:41.097Z,98633.70
2019-02-11T17:56:09.945Z,98633.90
2019-02-11T17:58:38.584Z,98610.66
2019-02-11T18:01:07.337Z,98623.69
2019-02-11T18:03:35.994Z,98635.98
2019-02-11T18:06:04.653Z,98627.84
2019-02-11T18:08:33.231Z,98627.19
2019-02-11T18:11:01.781Z,98638.53
2019-02-11T18:13:30.414Z,98623.69
2019-02-11T18:15:59.052Z,98624.20
2019-02-11T18:18:27.736Z,98623.47
2019-02-11T18:20:56.299Z,98620.36
2019-02-11T18:23:25.872Z,98635.96
2019-02-11T18:25:57.108Z,98629.35
2019-02-11T18:28:25.718Z,98622.03
2019-02-11T18:30:54.346Z,98616.37
2019-02-11T18:33:23.038Z,98608.73
2019-02-11T18:35:51.604Z,98602.89
2019-02-11T18:38:20.106Z,98613.46
2019-02-11T18:40:48.780Z,98595.78
2019-02-11T18:43:17.744Z,98587.23
2019-02-11T18:45:46.365Z,98607.95
2019-02-11T18:48:18.029Z,98612.01
2019-02-11T18:50:46.700Z,98602.49
2019-02-11T18:53:15.319Z,98605.62
2019-02-11T18:55:43.943Z,98600.11
2019-02-11T18:58:12.580Z,98594.47
2019-02-11T19:00:41.203Z,98588.05
2019-02-11T19:03:12.466Z,98577.51
2019-02-11T19:05:41.073Z,98569.27
2019-02-11T19:08:09.708Z,98566.17
2019-02-11T19:10:41.216Z,98575.31
2019-02-11T19:13:12.772Z,98593.02
2019-02-11T19:15:41.476Z,98593.30
2019-02-11T19:18:12.855Z,98578.97
2019-02-11T19:20:41.483Z,98578.97
2019-02-11T19:23:10.058Z,98580.59
2019-02-11T19:25:41.582Z,98572.67
2019-02-11T19:28:10.212Z,98562.48
2019-02-11T19:30:38.778Z,98566.88
2019-02-11T19:33:07.342Z,98585.27
2019-02-11T19:35:35.912Z,98578.16
2019-02-11T19:38:04.670Z,98570.30
2019-02-11T19:40:33.374Z,98572.54
2019-02-11T19:43:01.964Z,98558.26
2019-02-11T19:45:30.583Z,98564.48
2019-02-11T19:48:02.060Z,98553.20
2019-02-11T19:50:30.678Z,98551.74
2019-02-11T19:52:59.292Z,98555.25
2019-02-11T19:55:27.847Z,98547.38
2019-02-11T19:57:56.531Z,98552.83
2019-02-11T20:00:25.185Z,98550.54
2019-02-11T20:02:53.792Z,98550.18
2019-02-11T20:05:22.445Z,98559.05
2019-02-11T20:07:51.065Z,98547.13
2019-02-11T20:10:21.587Z,98544.73
2019-02-11T20:12:50.395Z,98543.51
2019-02-11T20:15:24.578Z,98541.38
2019-02-11T20:17:55.955Z,98545.28
2019-02-11T20:20:24.611Z,98545.01
2019-02-11T20:22:53.145Z,98540.39
2019-02-11T20:25:21.783Z,98538.52
2019-02-11T20:27:50.464Z,98539.66
2019-02-11T20:30:26.805Z,98533.29
2019-02-11T20:32:55.506Z,98539.71
2019-02-11T20:35:24.158Z,98535.08
2019-02-11T20:37:52.728Z,98520.70
2019-02-11T20:40:29.362Z,98520.11
2019-02-11T20:42:57.997Z,98514.22
2019-02-11T20:45:28.324Z,98522.81
2019-02-11T20:48:00.315Z,98531.23
2019-02-11T20:50:31.932Z,98529.19
2019-02-11T20:53:00.574Z,98519.77
2019-02-11T20:55:29.247Z,98518.03
2019-02-11T20:57:59.950Z,98517.23
2019-02-11T21:00:28.627Z,98515.83
2019-02-11T21:02:57.264Z,98528.77
2019-02-11T21:05:25.935Z,98531.56
2019-02-11T21:07:54.595Z,98537.39
2019-02-11T21:10:25.381Z,98528.25
2019-02-11T21:12:54.029Z,98516.80
2019-02-11T21:15:22.905Z,98515.91
2019-02-11T21:17:51.548Z,98505.87
2019-02-11T21:20:33.766Z,98493.58
2019-02-11T21:23:02.402Z,98515.06
2019-02-11T21:25:31.076Z,98495.27
2019-02-11T21:27:59.719Z,98507.89
2019-02-11T21:30:28.406Z,98501.67
2019-02-11T21:32:56.982Z,98491.19
2019-02-11T21:35:26.038Z,98492.22
2019-02-11T21:37:54.706Z,98494.02
2019-02-11T21:40:23.463Z,98484.77
2019-02-11T21:42:52.108Z,98504.00
2019-02-11T21:45:23.443Z,98505.38
2019-02-11T21:47:52.045Z,98471.31
2019-02-11T21:50:26.697Z,98474.69
2019-02-11T21:52:52.451Z,98471.46
2019-02-11T21:55:26.848Z,98472.69
2019-02-11T21:57:55.485Z,98478.44
2019-02-11T22:00:24.342Z,98430.19
2019-02-11T22:02:55.395Z,98445.72
2019-02-11T22:05:26.831Z,98459.59
2019-02-11T22:07:55.448Z,98441.52
2019-02-11T22:10:24.439Z,98432.13
2019-02-11T22:12:53.049Z,98435.88
2019-02-11T22:15:21.743Z,98445.93
2019-02-11T22:17:53.105Z,98446.04
2019-02-11T22:20:22.342Z,98431.37
2019-02-11T22:22:50.985Z,98434.98
2019-02-11T22:25:19.639Z,98426.91
2019-02-11T22:27:48.183Z,98425.33
2019-02-11T22:30:21.949Z,98432.78
2019-02-11T22:32:50.504Z,98445.23
2019-02-11T22:35:19.150Z,98426.22
2019-02-11T22:37:49.697Z,98422.41
2019-02-11T22:40:18.454Z,98441.16
2019-02-11T22:42:47.192Z,98415.34
2019-02-11T22:45:17.978Z,98449.14
2019-02-11T22:47:46.616Z,98439.81
2019-02-11T22:50:15.292Z,98443.26
2019-02-11T22:52:43.977Z,98452.23
2019-02-11T22:55:14.334Z,98465.03
2019-02-11T22:57:43.014Z,98461.45
2019-02-11T23:00:28.749Z,98462.28
2019-02-11T23:02:57.612Z,98463.30
2019-02-11T23:05:26.175Z,98480.10
2019-02-11T23:07:54.785Z,98494.80
2019-02-11T23:10:23.455Z,98498.73
2019-02-11T23:12:52.018Z,98517.94
2019-02-11T23:15:20.688Z,98501.90
2019-02-11T23:17:49.296Z,98509.48
2019-02-11T23:20:17.914Z,98515.33
2019-02-11T23:22:46.485Z,98513.98
2019-02-11T23:25:15.053Z,98531.90
2019-02-11T23:27:43.662Z,98531.73
2019-02-11T23:30:13.802Z,98529.77
2019-02-11T23:32:45.727Z,98549.39
2019-02-11T23:35:14.432Z,98558.24
2019-02-11T23:37:43.054Z,98565.71
2019-02-11T23:40:11.691Z,98560.86
2019-02-11T23:42:40.379Z,98561.52
2019-02-11T23:45:11.327Z,98554.53
2019-02-11T23:47:40.812Z,98567.80
2019-02-11T23:50:11.414Z,98568.60
2019-02-11T23:52:40.050Z,98563.73
2019-02-11T23:55:11.560Z,98562.43
2019-02-11T23:57:41.124Z,98569.67
